Terminal Aerodrome Forecast
Issued by NWS Detroit/Pontiac, MI

Home | Current Version | Previous Version | Text Only | Print | Product List | Glossary On
Versions: 1 2 3 4 5 6 7 8 9 10 11 12 13 14 15 16
000
FTUS43 KDTX 241732
TAFFNT
TAF
KFNT 241732Z 2418/2518 23006KT P6SM OVC040
     FM242000 22005KT P6SM BKN025
     FM250200 24003KT P6SM SCT025
     FM250900 23006KT 4SM BR BKN020
     FM251400 27010G18KT 4SM BR OVC015=

USA.gov is the U.S. government's official web portal to all federal, state and local government web resources and services.